sensor_id;sensor_type;location;lat;lon;timestamp;P1;durP1;ratioP1;P2;durP2;ratioP2
13222;SDS011;6676;45.192;5.722;2023-03-23T00:01:35;2.33;;;1.60;;
13222;SDS011;6676;45.192;5.722;2023-03-23T00:04:25;3.15;;;1.67;;
13222;SDS011;6676;45.192;5.722;2023-03-23T00:07:16;3.17;;;1.70;;
13222;SDS011;6676;45.192;5.722;2023-03-23T00:10:10;2.60;;;1.50;;
13222;SDS011;6676;45.192;5.722;2023-03-23T00:13:04;4.92;;;1.77;;
13222;SDS011;6676;45.192;5.722;2023-03-23T00:15:55;3.50;;;1.80;;
13222;SDS011;6676;45.192;5.722;2023-03-23T00:18:45;1.77;;;1.57;;
13222;SDS011;6676;45.192;5.722;2023-03-23T00:21:39;2.98;;;1.52;;
13222;SDS011;6676;45.192;5.722;2023-03-23T00:24:30;2.40;;;1.62;;
13222;SDS011;6676;45.192;5.722;2023-03-23T00:27:21;2.83;;;1.50;;
13222;SDS011;6676;45.192;5.722;2023-03-23T00:30:11;2.08;;;1.67;;
13222;SDS011;6676;45.192;5.722;2023-03-23T00:33:02;3.52;;;1.50;;
13222;SDS011;6676;45.192;5.722;2023-03-23T00:35:52;2.33;;;1.62;;
13222;SDS011;6676;45.192;5.722;2023-03-23T00:38:42;3.30;;;1.70;;
13222;SDS011;6676;45.192;5.722;2023-03-23T00:41:34;2.52;;;1.65;;
13222;SDS011;6676;45.192;5.722;2023-03-23T00:44:25;3.25;;;1.72;;
13222;SDS011;6676;45.192;5.722;2023-03-23T00:47:24;5.45;;;1.95;;
13222;SDS011;6676;45.192;5.722;2023-03-23T00:50:18;1.92;;;1.47;;
13222;SDS011;6676;45.192;5.722;2023-03-23T00:53:08;4.37;;;1.70;;
13222;SDS011;6676;45.192;5.722;2023-03-23T00:55:58;2.25;;;1.32;;
13222;SDS011;6676;45.192;5.722;2023-03-23T00:58:48;3.72;;;1.80;;
13222;SDS011;6676;45.192;5.722;2023-03-23T01:01:39;3.45;;;1.70;;
13222;SDS011;6676;45.192;5.722;2023-03-23T01:04:29;4.87;;;1.65;;
13222;SDS011;6676;45.192;5.722;2023-03-23T01:07:19;3.33;;;1.70;;
13222;SDS011;6676;45.192;5.722;2023-03-23T01:10:11;3.77;;;1.77;;
13222;SDS011;6676;45.192;5.722;2023-03-23T01:13:03;4.47;;;1.90;;
13222;SDS011;6676;45.192;5.722;2023-03-23T01:15:53;2.33;;;1.65;;
13222;SDS011;6676;45.192;5.722;2023-03-23T01:18:43;4.62;;;1.80;;
13222;SDS011;6676;45.192;5.722;2023-03-23T01:21:34;3.60;;;2.00;;
13222;SDS011;6676;45.192;5.722;2023-03-23T01:24:24;3.05;;;1.60;;
13222;SDS011;6676;45.192;5.722;2023-03-23T01:27:14;2.80;;;1.40;;
13222;SDS011;6676;45.192;5.722;2023-03-23T01:30:05;2.80;;;1.80;;
13222;SDS011;6676;45.192;5.722;2023-03-23T01:32:59;4.60;;;1.75;;
13222;SDS011;6676;45.192;5.722;2023-03-23T01:35:49;4.10;;;2.12;;
13222;SDS011;6676;45.192;5.722;2023-03-23T01:38:40;1.98;;;1.50;;
13222;SDS011;6676;45.192;5.722;2023-03-23T01:41:32;2.12;;;1.80;;
13222;SDS011;6676;45.192;5.722;2023-03-23T01:47:58;2.00;;;1.70;;
13222;SDS011;6676;45.192;5.722;2023-03-23T01:50:53;2.30;;;1.62;;
13222;SDS011;6676;45.192;5.722;2023-03-23T01:53:55;2.75;;;1.85;;
13222;SDS011;6676;45.192;5.722;2023-03-23T01:56:50;4.33;;;1.75;;
13222;SDS011;6676;45.192;5.722;2023-03-23T01:59:31;5.20;;;2.00;;
13222;SDS011;6676;45.192;5.722;2023-03-23T02:02:36;2.47;;;1.60;;
13222;SDS011;6676;45.192;5.722;2023-03-23T02:05:28;2.58;;;1.57;;
13222;SDS011;6676;45.192;5.722;2023-03-23T02:08:23;2.83;;;2.00;;
13222;SDS011;6676;45.192;5.722;2023-03-23T02:11:15;2.70;;;1.42;;
13222;SDS011;6676;45.192;5.722;2023-03-23T02:14:09;3.05;;;1.98;;
13222;SDS011;6676;45.192;5.722;2023-03-23T02:17:08;4.87;;;1.90;;
13222;SDS011;6676;45.192;5.722;2023-03-23T02:20:08;4.22;;;1.72;;
13222;SDS011;6676;45.192;5.722;2023-03-23T02:23:12;2.83;;;1.72;;
13222;SDS011;6676;45.192;5.722;2023-03-23T02:26:19;1.90;;;1.50;;
13222;SDS011;6676;45.192;5.722;2023-03-23T02:29:25;3.37;;;1.82;;
13222;SDS011;6676;45.192;5.722;2023-03-23T02:32:33;2.33;;;1.60;;
13222;SDS011;6676;45.192;5.722;2023-03-23T02:35:44;4.35;;;1.77;;
13222;SDS011;6676;45.192;5.722;2023-03-23T02:38:37;3.20;;;1.80;;
13222;SDS011;6676;45.192;5.722;2023-03-23T02:41:30;2.55;;;1.60;;
13222;SDS011;6676;45.192;5.722;2023-03-23T02:47:20;3.08;;;2.58;;
13222;SDS011;6676;45.192;5.722;2023-03-23T02:50:13;5.35;;;2.98;;
13222;SDS011;6676;45.192;5.722;2023-03-23T02:53:07;3.92;;;2.83;;
13222;SDS011;6676;45.192;5.722;2023-03-23T02:55:47;4.05;;;2.70;;
13222;SDS011;6676;45.192;5.722;2023-03-23T02:58:41;4.60;;;2.27;;
13222;SDS011;6676;45.192;5.722;2023-03-23T03:01:48;4.40;;;2.15;;
13222;SDS011;6676;45.192;5.722;2023-03-23T03:04:43;3.67;;;2.00;;
13222;SDS011;6676;45.192;5.722;2023-03-23T03:07:39;3.42;;;1.70;;
13222;SDS011;6676;45.192;5.722;2023-03-23T03:10:43;2.67;;;1.60;;
13222;SDS011;6676;45.192;5.722;2023-03-23T03:13:39;3.27;;;1.50;;
13222;SDS011;6676;45.192;5.722;2023-03-23T03:16:33;3.75;;;1.55;;
13222;SDS011;6676;45.192;5.722;2023-03-23T03:19:25;3.20;;;1.50;;
13222;SDS011;6676;45.192;5.722;2023-03-23T03:22:19;4.10;;;1.62;;
13222;SDS011;6676;45.192;5.722;2023-03-23T03:25:11;4.05;;;1.77;;
13222;SDS011;6676;45.192;5.722;2023-03-23T03:28:04;4.70;;;1.40;;
13222;SDS011;6676;45.192;5.722;2023-03-23T03:31:03;2.98;;;1.67;;
13222;SDS011;6676;45.192;5.722;2023-03-23T03:34:03;5.58;;;1.87;;
13222;SDS011;6676;45.192;5.722;2023-03-23T03:36:55;3.92;;;1.45;;
13222;SDS011;6676;45.192;5.722;2023-03-23T03:39:47;2.50;;;1.70;;
13222;SDS011;6676;45.192;5.722;2023-03-23T03:42:38;2.70;;;1.55;;
13222;SDS011;6676;45.192;5.722;2023-03-23T03:45:30;2.17;;;1.37;;
13222;SDS011;6676;45.192;5.722;2023-03-23T03:48:21;1.85;;;1.50;;
13222;SDS011;6676;45.192;5.722;2023-03-23T03:51:11;1.40;;;1.22;;
13222;SDS011;6676;45.192;5.722;2023-03-23T03:54:04;3.05;;;1.70;;
13222;SDS011;6676;45.192;5.722;2023-03-23T03:56:54;4.10;;;1.95;;
13222;SDS011;6676;45.192;5.722;2023-03-23T04:00:04;3.00;;;1.47;;
13222;SDS011;6676;45.192;5.722;2023-03-23T04:03:01;2.62;;;1.75;;
13222;SDS011;6676;45.192;5.722;2023-03-23T04:05:53;4.03;;;1.50;;
13222;SDS011;6676;45.192;5.722;2023-03-23T04:08:43;3.65;;;1.77;;
13222;SDS011;6676;45.192;5.722;2023-03-23T04:11:33;2.90;;;1.70;;
13222;SDS011;6676;45.192;5.722;2023-03-23T04:14:25;2.62;;;1.60;;
13222;SDS011;6676;45.192;5.722;2023-03-23T04:17:16;3.17;;;1.40;;
13222;SDS011;6676;45.192;5.722;2023-03-23T04:20:08;2.62;;;1.65;;
13222;SDS011;6676;45.192;5.722;2023-03-23T04:23:01;2.35;;;1.90;;
13222;SDS011;6676;45.192;5.722;2023-03-23T04:25:53;4.12;;;1.70;;
13222;SDS011;6676;45.192;5.722;2023-03-23T04:28:46;2.85;;;1.70;;
13222;SDS011;6676;45.192;5.722;2023-03-23T04:31:51;2.95;;;1.67;;
13222;SDS011;6676;45.192;5.722;2023-03-23T04:34:50;3.55;;;1.60;;
13222;SDS011;6676;45.192;5.722;2023-03-23T04:37:42;2.77;;;1.77;;
13222;SDS011;6676;45.192;5.722;2023-03-23T04:40:36;1.90;;;1.47;;
13222;SDS011;6676;45.192;5.722;2023-03-23T04:43:28;2.70;;;1.77;;
13222;SDS011;6676;45.192;5.722;2023-03-23T04:46:25;4.97;;;1.87;;
13222;SDS011;6676;45.192;5.722;2023-03-23T04:49:19;3.60;;;1.52;;
13222;SDS011;6676;45.192;5.722;2023-03-23T04:52:11;2.87;;;1.70;;
13222;SDS011;6676;45.192;5.722;2023-03-23T04:55:06;2.85;;;2.00;;
13222;SDS011;6676;45.192;5.722;2023-03-23T04:57:58;3.02;;;1.60;;
13222;SDS011;6676;45.192;5.722;2023-03-23T05:00:57;2.85;;;1.82;;
13222;SDS011;6676;45.192;5.722;2023-03-23T05:03:50;3.05;;;1.50;;
13222;SDS011;6676;45.192;5.722;2023-03-23T05:06:41;3.02;;;1.80;;
13222;SDS011;6676;45.192;5.722;2023-03-23T05:09:34;3.22;;;1.90;;
13222;SDS011;6676;45.192;5.722;2023-03-23T05:12:24;4.33;;;1.60;;
13222;SDS011;6676;45.192;5.722;2023-03-23T05:15:20;3.50;;;1.85;;
13222;SDS011;6676;45.192;5.722;2023-03-23T05:18:11;3.17;;;1.37;;
13222;SDS011;6676;45.192;5.722;2023-03-23T05:21:03;3.17;;;1.42;;
13222;SDS011;6676;45.192;5.722;2023-03-23T05:23:58;2.67;;;1.40;;
13222;SDS011;6676;45.192;5.722;2023-03-23T05:26:49;2.70;;;1.72;;
13222;SDS011;6676;45.192;5.722;2023-03-23T05:29:42;4.50;;;1.80;;
13222;SDS011;6676;45.192;5.722;2023-03-23T05:32:37;2.77;;;1.70;;
13222;SDS011;6676;45.192;5.722;2023-03-23T05:35:30;3.58;;;1.67;;
13222;SDS011;6676;45.192;5.722;2023-03-23T05:38:22;6.25;;;1.47;;
13222;SDS011;6676;45.192;5.722;2023-03-23T05:41:14;3.02;;;1.82;;
13222;SDS011;6676;45.192;5.722;2023-03-23T05:44:06;3.33;;;1.90;;
13222;SDS011;6676;45.192;5.722;2023-03-23T05:47:06;3.65;;;1.70;;
13222;SDS011;6676;45.192;5.722;2023-03-23T05:49:58;4.20;;;1.67;;
13222;SDS011;6676;45.192;5.722;2023-03-23T05:52:50;3.37;;;1.50;;
13222;SDS011;6676;45.192;5.722;2023-03-23T05:55:43;3.47;;;1.75;;
13222;SDS011;6676;45.192;5.722;2023-03-23T05:58:58;3.62;;;1.30;;
13222;SDS011;6676;45.192;5.722;2023-03-23T06:01:51;3.95;;;1.40;;
13222;SDS011;6676;45.192;5.722;2023-03-23T06:04:46;2.22;;;1.37;;
13222;SDS011;6676;45.192;5.722;2023-03-23T06:07:46;3.37;;;1.60;;
13222;SDS011;6676;45.192;5.722;2023-03-23T06:10:36;3.72;;;1.75;;
13222;SDS011;6676;45.192;5.722;2023-03-23T06:13:27;3.67;;;1.82;;
13222;SDS011;6676;45.192;5.722;2023-03-23T06:16:28;3.35;;;1.60;;
13222;SDS011;6676;45.192;5.722;2023-03-23T06:19:31;4.80;;;2.02;;
13222;SDS011;6676;45.192;5.722;2023-03-23T06:22:26;3.37;;;1.55;;
13222;SDS011;6676;45.192;5.722;2023-03-23T06:25:18;5.87;;;1.67;;
13222;SDS011;6676;45.192;5.722;2023-03-23T06:28:10;3.70;;;1.77;;
13222;SDS011;6676;45.192;5.722;2023-03-23T06:31:02;4.85;;;1.87;;
13222;SDS011;6676;45.192;5.722;2023-03-23T06:33:57;3.10;;;1.80;;
13222;SDS011;6676;45.192;5.722;2023-03-23T06:36:53;3.25;;;1.82;;
13222;SDS011;6676;45.192;5.722;2023-03-23T06:39:46;4.53;;;2.22;;
13222;SDS011;6676;45.192;5.722;2023-03-23T06:42:41;5.97;;;1.92;;
13222;SDS011;6676;45.192;5.722;2023-03-23T06:45:34;6.72;;;1.72;;
13222;SDS011;6676;45.192;5.722;2023-03-23T06:48:36;3.65;;;1.70;;
13222;SDS011;6676;45.192;5.722;2023-03-23T06:51:31;4.53;;;1.65;;
13222;SDS011;6676;45.192;5.722;2023-03-23T06:54:21;4.97;;;1.60;;
13222;SDS011;6676;45.192;5.722;2023-03-23T06:57:13;8.88;;;1.67;;
13222;SDS011;6676;45.192;5.722;2023-03-23T07:00:08;4.83;;;1.90;;
13222;SDS011;6676;45.192;5.722;2023-03-23T07:03:04;3.05;;;1.50;;
13222;SDS011;6676;45.192;5.722;2023-03-23T07:08:37;6.30;;;1.87;;
13222;SDS011;6676;45.192;5.722;2023-03-23T07:11:29;1.90;;;1.52;;
13222;SDS011;6676;45.192;5.722;2023-03-23T07:14:21;5.70;;;1.95;;
13222;SDS011;6676;45.192;5.722;2023-03-23T07:17:12;2.70;;;1.45;;
13222;SDS011;6676;45.192;5.722;2023-03-23T07:20:05;2.62;;;1.75;;
13222;SDS011;6676;45.192;5.722;2023-03-23T07:22:57;2.67;;;1.55;;
13222;SDS011;6676;45.192;5.722;2023-03-23T07:25:50;3.75;;;1.60;;
13222;SDS011;6676;45.192;5.722;2023-03-23T07:28:42;3.40;;;2.02;;
13222;SDS011;6676;45.192;5.722;2023-03-23T07:31:36;4.03;;;1.72;;
13222;SDS011;6676;45.192;5.722;2023-03-23T07:34:26;4.42;;;1.80;;
13222;SDS011;6676;45.192;5.722;2023-03-23T07:37:18;2.80;;;1.65;;
13222;SDS011;6676;45.192;5.722;2023-03-23T07:40:09;3.65;;;1.42;;
13222;SDS011;6676;45.192;5.722;2023-03-23T07:43:03;1.87;;;1.20;;
13222;SDS011;6676;45.192;5.722;2023-03-23T07:46:12;2.92;;;1.42;;
13222;SDS011;6676;45.192;5.722;2023-03-23T07:49:06;4.33;;;1.50;;
13222;SDS011;6676;45.192;5.722;2023-03-23T07:51:59;3.15;;;1.40;;
13222;SDS011;6676;45.192;5.722;2023-03-23T07:54:50;2.50;;;1.35;;
13222;SDS011;6676;45.192;5.722;2023-03-23T07:57:47;4.47;;;1.70;;
13222;SDS011;6676;45.192;5.722;2023-03-23T08:00:41;4.58;;;1.70;;
13222;SDS011;6676;45.192;5.722;2023-03-23T08:03:32;3.02;;;1.35;;
13222;SDS011;6676;45.192;5.722;2023-03-23T08:06:13;3.77;;;1.62;;
13222;SDS011;6676;45.192;5.722;2023-03-23T08:09:13;4.62;;;1.50;;
13222;SDS011;6676;45.192;5.722;2023-03-23T08:12:08;2.52;;;1.27;;
13222;SDS011;6676;45.192;5.722;2023-03-23T08:15:13;2.98;;;1.70;;
13222;SDS011;6676;45.192;5.722;2023-03-23T08:18:05;3.37;;;1.52;;
13222;SDS011;6676;45.192;5.722;2023-03-23T08:21:13;3.45;;;1.50;;
13222;SDS011;6676;45.192;5.722;2023-03-23T08:24:23;4.47;;;1.55;;
13222;SDS011;6676;45.192;5.722;2023-03-23T08:27:15;5.15;;;1.95;;
13222;SDS011;6676;45.192;5.722;2023-03-23T08:30:09;5.72;;;2.42;;
13222;SDS011;6676;45.192;5.722;2023-03-23T08:33:05;4.03;;;2.35;;
13222;SDS011;6676;45.192;5.722;2023-03-23T08:36:05;6.40;;;2.27;;
13222;SDS011;6676;45.192;5.722;2023-03-23T08:41:52;2.75;;;1.92;;
13222;SDS011;6676;45.192;5.722;2023-03-23T08:44:55;3.35;;;2.22;;
13222;SDS011;6676;45.192;5.722;2023-03-23T08:48:02;6.37;;;2.60;;
13222;SDS011;6676;45.192;5.722;2023-03-23T08:51:08;3.45;;;2.40;;
13222;SDS011;6676;45.192;5.722;2023-03-23T08:54:05;6.43;;;2.80;;
13222;SDS011;6676;45.192;5.722;2023-03-23T08:57:03;3.98;;;2.70;;
13222;SDS011;6676;45.192;5.722;2023-03-23T08:59:56;8.50;;;2.92;;
13222;SDS011;6676;45.192;5.722;2023-03-23T09:02:51;8.88;;;3.85;;
13222;SDS011;6676;45.192;5.722;2023-03-23T09:05:43;5.47;;;3.37;;
13222;SDS011;6676;45.192;5.722;2023-03-23T09:08:38;5.47;;;3.62;;
13222;SDS011;6676;45.192;5.722;2023-03-23T09:11:28;5.60;;;3.77;;
13222;SDS011;6676;45.192;5.722;2023-03-23T09:14:17;7.37;;;4.20;;
13222;SDS011;6676;45.192;5.722;2023-03-23T09:17:07;6.00;;;3.62;;
13222;SDS011;6676;45.192;5.722;2023-03-23T09:19:58;5.15;;;3.33;;
13222;SDS011;6676;45.192;5.722;2023-03-23T09:22:49;4.45;;;3.42;;
13222;SDS011;6676;45.192;5.722;2023-03-23T09:25:40;4.00;;;2.98;;
13222;SDS011;6676;45.192;5.722;2023-03-23T09:28:31;6.55;;;4.53;;
13222;SDS011;6676;45.192;5.722;2023-03-23T09:31:21;7.62;;;4.45;;
13222;SDS011;6676;45.192;5.722;2023-03-23T09:34:12;4.45;;;3.87;;
13222;SDS011;6676;45.192;5.722;2023-03-23T09:37:03;4.75;;;3.58;;
13222;SDS011;6676;45.192;5.722;2023-03-23T09:39:53;7.30;;;3.72;;
13222;SDS011;6676;45.192;5.722;2023-03-23T09:46:06;5.42;;;3.75;;
13222;SDS011;6676;45.192;5.722;2023-03-23T09:49:02;6.15;;;4.20;;
13222;SDS011;6676;45.192;5.722;2023-03-23T09:51:55;7.70;;;4.97;;
13222;SDS011;6676;45.192;5.722;2023-03-23T09:54:48;6.33;;;4.78;;
13222;SDS011;6676;45.192;5.722;2023-03-23T09:57:41;7.33;;;5.00;;
13222;SDS011;6676;45.192;5.722;2023-03-23T10:00:34;9.13;;;5.20;;
13222;SDS011;6676;45.192;5.722;2023-03-23T10:03:34;8.43;;;5.85;;
13222;SDS011;6676;45.192;5.722;2023-03-23T10:06:27;7.58;;;5.33;;
13222;SDS011;6676;45.192;5.722;2023-03-23T10:09:17;8.95;;;5.87;;
13222;SDS011;6676;45.192;5.722;2023-03-23T10:12:12;8.55;;;6.50;;
13222;SDS011;6676;45.192;5.722;2023-03-23T10:15:15;8.23;;;6.47;;
13222;SDS011;6676;45.192;5.722;2023-03-23T10:18:10;8.90;;;6.67;;
13222;SDS011;6676;45.192;5.722;2023-03-23T10:21:03;9.18;;;6.72;;
13222;SDS011;6676;45.192;5.722;2023-03-23T10:23:56;11.12;;;7.08;;
13222;SDS011;6676;45.192;5.722;2023-03-23T10:26:54;13.05;;;7.70;;
13222;SDS011;6676;45.192;5.722;2023-03-23T10:29:31;10.93;;;8.25;;
13222;SDS011;6676;45.192;5.722;2023-03-23T10:32:36;15.28;;;8.55;;
13222;SDS011;6676;45.192;5.722;2023-03-23T10:35:33;11.95;;;8.55;;
13222;SDS011;6676;45.192;5.722;2023-03-23T10:38:26;13.58;;;9.60;;
13222;SDS011;6676;45.192;5.722;2023-03-23T10:41:19;12.28;;;9.68;;
13222;SDS011;6676;45.192;5.722;2023-03-23T10:44:15;13.10;;;9.68;;
13222;SDS011;6676;45.192;5.722;2023-03-23T10:47:03;11.97;;;8.85;;
13222;SDS011;6676;45.192;5.722;2023-03-23T10:49:55;15.60;;;9.70;;
13222;SDS011;6676;45.192;5.722;2023-03-23T10:52:48;10.82;;;7.62;;
13222;SDS011;6676;45.192;5.722;2023-03-23T10:55:41;12.47;;;9.28;;
13222;SDS011;6676;45.192;5.722;2023-03-23T10:58:32;12.37;;;9.03;;
13222;SDS011;6676;45.192;5.722;2023-03-23T11:01:28;13.35;;;8.70;;
13222;SDS011;6676;45.192;5.722;2023-03-23T11:04:19;11.28;;;8.53;;
13222;SDS011;6676;45.192;5.722;2023-03-23T11:07:18;10.85;;;8.55;;
13222;SDS011;6676;45.192;5.722;2023-03-23T11:10:06;13.05;;;9.45;;
13222;SDS011;6676;45.192;5.722;2023-03-23T11:13:04;11.60;;;6.80;;
13222;SDS011;6676;45.192;5.722;2023-03-23T11:15:57;10.45;;;8.25;;
13222;SDS011;6676;45.192;5.722;2023-03-23T11:18:48;12.23;;;8.58;;
13222;SDS011;6676;45.192;5.722;2023-03-23T11:21:39;10.85;;;7.70;;
13222;SDS011;6676;45.192;5.722;2023-03-23T11:24:36;13.18;;;8.68;;
13222;SDS011;6676;45.192;5.722;2023-03-23T11:27:28;11.53;;;8.28;;
13222;SDS011;6676;45.192;5.722;2023-03-23T11:30:21;10.50;;;8.50;;
13222;SDS011;6676;45.192;5.722;2023-03-23T11:33:14;11.22;;;8.75;;
13222;SDS011;6676;45.192;5.722;2023-03-23T11:36:05;12.07;;;8.95;;
13222;SDS011;6676;45.192;5.722;2023-03-23T11:38:57;12.05;;;9.15;;
13222;SDS011;6676;45.192;5.722;2023-03-23T11:41:49;13.00;;;8.18;;
13222;SDS011;6676;45.192;5.722;2023-03-23T11:44:40;12.35;;;9.18;;
13222;SDS011;6676;45.192;5.722;2023-03-23T11:47:35;12.63;;;9.88;;
13222;SDS011;6676;45.192;5.722;2023-03-23T11:50:16;14.38;;;10.13;;
13222;SDS011;6676;45.192;5.722;2023-03-23T11:53:10;10.95;;;8.93;;
13222;SDS011;6676;45.192;5.722;2023-03-23T11:56:06;10.45;;;8.63;;
13222;SDS011;6676;45.192;5.722;2023-03-23T11:59:00;11.03;;;8.68;;
13222;SDS011;6676;45.192;5.722;2023-03-23T12:01:53;10.50;;;7.22;;
13222;SDS011;6676;45.192;5.722;2023-03-23T12:04:35;10.48;;;8.08;;
13222;SDS011;6676;45.192;5.722;2023-03-23T12:07:42;11.00;;;8.08;;
13222;SDS011;6676;45.192;5.722;2023-03-23T12:10:39;10.78;;;8.10;;
13222;SDS011;6676;45.192;5.722;2023-03-23T12:13:42;10.23;;;7.97;;
13222;SDS011;6676;45.192;5.722;2023-03-23T12:16:52;10.78;;;8.53;;
13222;SDS011;6676;45.192;5.722;2023-03-23T12:19:48;11.43;;;8.60;;
13222;SDS011;6676;45.192;5.722;2023-03-23T12:22:46;11.97;;;9.00;;
13222;SDS011;6676;45.192;5.722;2023-03-23T12:25:47;13.60;;;8.90;;
13222;SDS011;6676;45.192;5.722;2023-03-23T12:28:46;13.35;;;8.88;;
13222;SDS011;6676;45.192;5.722;2023-03-23T12:32:13;13.40;;;9.20;;
13222;SDS011;6676;45.192;5.722;2023-03-23T12:35:17;12.05;;;8.48;;
13222;SDS011;6676;45.192;5.722;2023-03-23T12:38:36;13.50;;;9.85;;
13222;SDS011;6676;45.192;5.722;2023-03-23T12:41:36;14.65;;;9.28;;
13222;SDS011;6676;45.192;5.722;2023-03-23T12:44:34;12.73;;;8.85;;
13222;SDS011;6676;45.192;5.722;2023-03-23T12:47:37;11.73;;;8.58;;
13222;SDS011;6676;45.192;5.722;2023-03-23T12:50:32;10.85;;;8.60;;
13222;SDS011;6676;45.192;5.722;2023-03-23T12:53:25;13.15;;;8.83;;
13222;SDS011;6676;45.192;5.722;2023-03-23T12:56:18;10.93;;;9.18;;
13222;SDS011;6676;45.192;5.722;2023-03-23T12:59:12;11.83;;;8.88;;
13222;SDS011;6676;45.192;5.722;2023-03-23T13:02:06;11.73;;;8.35;;
13222;SDS011;6676;45.192;5.722;2023-03-23T13:05:01;12.40;;;8.75;;
13222;SDS011;6676;45.192;5.722;2023-03-23T13:08:09;11.45;;;9.15;;
13222;SDS011;6676;45.192;5.722;2023-03-23T13:10:49;11.88;;;9.03;;
13222;SDS011;6676;45.192;5.722;2023-03-23T13:13:44;12.45;;;8.85;;
13222;SDS011;6676;45.192;5.722;2023-03-23T13:16:39;11.73;;;9.13;;
13222;SDS011;6676;45.192;5.722;2023-03-23T13:19:33;12.75;;;8.98;;
13222;SDS011;6676;45.192;5.722;2023-03-23T13:22:26;11.53;;;8.15;;
13222;SDS011;6676;45.192;5.722;2023-03-23T13:25:22;11.35;;;8.80;;
13222;SDS011;6676;45.192;5.722;2023-03-23T13:28:14;9.63;;;7.60;;
13222;SDS011;6676;45.192;5.722;2023-03-23T13:31:12;10.32;;;8.65;;
13222;SDS011;6676;45.192;5.722;2023-03-23T13:34:04;10.13;;;7.50;;
13222;SDS011;6676;45.192;5.722;2023-03-23T13:37:01;14.15;;;8.80;;
13222;SDS011;6676;45.192;5.722;2023-03-23T13:39:52;11.12;;;8.70;;
13222;SDS011;6676;45.192;5.722;2023-03-23T13:42:49;11.83;;;8.80;;
13222;SDS011;6676;45.192;5.722;2023-03-23T13:45:45;11.08;;;8.13;;
13222;SDS011;6676;45.192;5.722;2023-03-23T13:48:45;10.88;;;8.18;;
13222;SDS011;6676;45.192;5.722;2023-03-23T13:51:46;14.20;;;9.20;;
13222;SDS011;6676;45.192;5.722;2023-03-23T13:54:43;9.98;;;7.67;;
13222;SDS011;6676;45.192;5.722;2023-03-23T13:57:35;9.75;;;8.13;;
13222;SDS011;6676;45.192;5.722;2023-03-23T14:00:44;12.55;;;7.85;;
13222;SDS011;6676;45.192;5.722;2023-03-23T14:03:36;12.50;;;8.70;;
13222;SDS011;6676;45.192;5.722;2023-03-23T14:06:32;10.63;;;8.70;;
13222;SDS011;6676;45.192;5.722;2023-03-23T14:09:28;10.28;;;8.18;;
13222;SDS011;6676;45.192;5.722;2023-03-23T14:12:21;10.63;;;8.50;;
13222;SDS011;6676;45.192;5.722;2023-03-23T14:15:15;9.78;;;8.20;;
13222;SDS011;6676;45.192;5.722;2023-03-23T14:18:06;9.75;;;7.92;;
13222;SDS011;6676;45.192;5.722;2023-03-23T14:21:01;9.98;;;8.13;;
13222;SDS011;6676;45.192;5.722;2023-03-23T14:23:52;10.90;;;8.70;;
13222;SDS011;6676;45.192;5.722;2023-03-23T14:26:44;11.40;;;8.50;;
13222;SDS011;6676;45.192;5.722;2023-03-23T14:29:35;11.12;;;7.78;;
13222;SDS011;6676;45.192;5.722;2023-03-23T14:32:29;10.32;;;7.90;;
13222;SDS011;6676;45.192;5.722;2023-03-23T14:35:23;11.63;;;8.00;;
13222;SDS011;6676;45.192;5.722;2023-03-23T14:38:19;10.25;;;7.50;;
13222;SDS011;6676;45.192;5.722;2023-03-23T14:41:13;8.28;;;6.97;;
13222;SDS011;6676;45.192;5.722;2023-03-23T14:44:03;11.65;;;6.85;;
13222;SDS011;6676;45.192;5.722;2023-03-23T14:46:57;9.83;;;7.30;;
13222;SDS011;6676;45.192;5.722;2023-03-23T14:49:53;8.85;;;7.30;;
13222;SDS011;6676;45.192;5.722;2023-03-23T14:52:47;7.58;;;6.37;;
13222;SDS011;6676;45.192;5.722;2023-03-23T14:55:37;8.68;;;6.58;;
13222;SDS011;6676;45.192;5.722;2023-03-23T14:58:29;8.38;;;6.58;;
13222;SDS011;6676;45.192;5.722;2023-03-23T15:01:20;6.45;;;5.42;;
13222;SDS011;6676;45.192;5.722;2023-03-23T15:04:15;7.70;;;5.65;;
13222;SDS011;6676;45.192;5.722;2023-03-23T15:07:08;8.03;;;5.90;;
13222;SDS011;6676;45.192;5.722;2023-03-23T15:10:04;8.98;;;6.55;;
13222;SDS011;6676;45.192;5.722;2023-03-23T15:12:56;9.08;;;6.72;;
13222;SDS011;6676;45.192;5.722;2023-03-23T15:15:46;9.53;;;6.95;;
13222;SDS011;6676;45.192;5.722;2023-03-23T15:18:40;8.28;;;6.00;;
13222;SDS011;6676;45.192;5.722;2023-03-23T15:21:34;7.22;;;6.20;;
13222;SDS011;6676;45.192;5.722;2023-03-23T15:24:37;10.03;;;6.65;;
13222;SDS011;6676;45.192;5.722;2023-03-23T15:27:28;8.85;;;6.08;;
13222;SDS011;6676;45.192;5.722;2023-03-23T15:30:29;10.80;;;6.62;;
13222;SDS011;6676;45.192;5.722;2023-03-23T15:33:23;8.48;;;6.37;;
13222;SDS011;6676;45.192;5.722;2023-03-23T15:36:17;9.25;;;6.58;;
13222;SDS011;6676;45.192;5.722;2023-03-23T15:39:10;10.63;;;6.70;;
13222;SDS011;6676;45.192;5.722;2023-03-23T15:42:01;7.75;;;6.35;;
13222;SDS011;6676;45.192;5.722;2023-03-23T15:44:57;8.23;;;6.20;;
13222;SDS011;6676;45.192;5.722;2023-03-23T15:47:53;9.48;;;6.35;;
13222;SDS011;6676;45.192;5.722;2023-03-23T15:50:46;9.80;;;6.53;;
13222;SDS011;6676;45.192;5.722;2023-03-23T15:53:38;6.72;;;5.87;;
13222;SDS011;6676;45.192;5.722;2023-03-23T15:56:30;9.83;;;6.33;;
13222;SDS011;6676;45.192;5.722;2023-03-23T15:59:23;9.05;;;6.30;;
13222;SDS011;6676;45.192;5.722;2023-03-23T16:02:19;8.33;;;6.40;;
13222;SDS011;6676;45.192;5.722;2023-03-23T16:05:12;10.10;;;6.40;;
13222;SDS011;6676;45.192;5.722;2023-03-23T16:08:07;11.43;;;6.05;;
13222;SDS011;6676;45.192;5.722;2023-03-23T16:11:08;8.15;;;6.17;;
13222;SDS011;6676;45.192;5.722;2023-03-23T16:14:02;9.70;;;6.00;;
13222;SDS011;6676;45.192;5.722;2023-03-23T16:16:55;9.88;;;6.60;;
13222;SDS011;6676;45.192;5.722;2023-03-23T16:19:49;9.18;;;6.40;;
13222;SDS011;6676;45.192;5.722;2023-03-23T16:22:43;9.98;;;6.60;;
13222;SDS011;6676;45.192;5.722;2023-03-23T16:25:35;12.28;;;6.47;;
13222;SDS011;6676;45.192;5.722;2023-03-23T16:28:26;8.10;;;6.35;;
13222;SDS011;6676;45.192;5.722;2023-03-23T16:31:18;8.25;;;5.87;;
13222;SDS011;6676;45.192;5.722;2023-03-23T16:34:09;8.53;;;5.70;;
13222;SDS011;6676;45.192;5.722;2023-03-23T16:37:01;7.83;;;6.00;;
13222;SDS011;6676;45.192;5.722;2023-03-23T16:39:54;10.43;;;6.45;;
13222;SDS011;6676;45.192;5.722;2023-03-23T16:42:45;8.98;;;6.17;;
13222;SDS011;6676;45.192;5.722;2023-03-23T16:45:38;8.90;;;5.92;;
13222;SDS011;6676;45.192;5.722;2023-03-23T16:48:31;10.60;;;6.60;;
13222;SDS011;6676;45.192;5.722;2023-03-23T16:51:22;10.30;;;6.78;;
13222;SDS011;6676;45.192;5.722;2023-03-23T16:54:14;7.80;;;6.20;;
13222;SDS011;6676;45.192;5.722;2023-03-23T16:57:05;8.58;;;6.42;;
13222;SDS011;6676;45.192;5.722;2023-03-23T16:59:56;12.45;;;6.50;;
13222;SDS011;6676;45.192;5.722;2023-03-23T17:02:48;8.73;;;6.40;;
13222;SDS011;6676;45.192;5.722;2023-03-23T17:05:41;8.75;;;6.45;;
13222;SDS011;6676;45.192;5.722;2023-03-23T17:08:33;11.88;;;6.33;;
13222;SDS011;6676;45.192;5.722;2023-03-23T17:11:25;11.38;;;6.72;;
13222;SDS011;6676;45.192;5.722;2023-03-23T17:14:16;10.98;;;6.17;;
13222;SDS011;6676;45.192;5.722;2023-03-23T17:17:08;8.00;;;6.47;;
13222;SDS011;6676;45.192;5.722;2023-03-23T17:19:59;10.30;;;7.50;;
13222;SDS011;6676;45.192;5.722;2023-03-23T17:22:51;12.23;;;6.70;;
13222;SDS011;6676;45.192;5.722;2023-03-23T17:25:43;10.58;;;6.28;;
13222;SDS011;6676;45.192;5.722;2023-03-23T17:28:35;8.45;;;6.25;;
13222;SDS011;6676;45.192;5.722;2023-03-23T17:31:27;12.60;;;6.83;;
13222;SDS011;6676;45.192;5.722;2023-03-23T17:34:18;9.30;;;7.28;;
13222;SDS011;6676;45.192;5.722;2023-03-23T17:37:10;8.30;;;6.87;;
13222;SDS011;6676;45.192;5.722;2023-03-23T17:40:01;9.53;;;7.58;;
13222;SDS011;6676;45.192;5.722;2023-03-23T17:42:54;8.25;;;6.75;;
13222;SDS011;6676;45.192;5.722;2023-03-23T17:45:45;10.82;;;6.40;;
13222;SDS011;6676;45.192;5.722;2023-03-23T17:48:37;9.80;;;6.70;;
13222;SDS011;6676;45.192;5.722;2023-03-23T17:51:29;8.43;;;6.75;;
13222;SDS011;6676;45.192;5.722;2023-03-23T17:54:20;10.80;;;6.45;;
13222;SDS011;6676;45.192;5.722;2023-03-23T17:57:12;13.18;;;7.55;;